sensor_id;sensor_type;location;lat;lon;timestamp;temperature;humidity
65040;HTU21D;51606;45.000;38.612;2022-08-19T01:12:11;21.35;66.62
65040;HTU21D;51606;45.000;38.612;2022-08-19T01:14:39;21.35;66.67
65040;HTU21D;51606;45.000;38.612;2022-08-19T01:17:08;21.36;66.70
65040;HTU21D;51606;45.000;38.612;2022-08-19T01:19:40;21.37;66.73
65040;HTU21D;51606;45.000;38.612;2022-08-19T01:24:50;21.38;66.70
65040;HTU21D;51606;45.000;38.612;2022-08-19T01:27:18;21.39;66.72
65040;HTU21D;51606;45.000;38.612;2022-08-19T01:29:44;21.37;66.78
65040;HTU21D;51606;45.000;38.612;2022-08-19T01:32:13;21.35;66.89
65040;HTU21D;51606;45.000;38.612;2022-08-19T01:34:41;21.33;66.98
65040;HTU21D;51606;45.000;38.612;2022-08-19T01:37:10;21.31;67.06
65040;HTU21D;51606;45.000;38.612;2022-08-19T01:39:40;21.30;67.10
65040;HTU21D;51606;45.000;38.612;2022-08-19T01:42:08;21.25;67.20
65040;HTU21D;51606;45.000;38.612;2022-08-19T01:44:39;21.24;67.28
65040;HTU21D;51606;45.000;38.612;2022-08-19T01:47:08;21.21;67.36
65040;HTU21D;51606;45.000;38.612;2022-08-19T01:49:35;21.18;67.44
65040;HTU21D;51606;45.000;38.612;2022-08-19T01:52:03;21.15;67.52
65040;HTU21D;51606;45.000;38.612;2022-08-19T01:54:29;21.13;67.55
65040;HTU21D;51606;45.000;38.612;2022-08-19T01:57:03;21.11;67.61
65040;HTU21D;51606;45.000;38.612;2022-08-19T01:59:30;21.13;67.61
65040;HTU21D;51606;45.000;38.612;2022-08-19T02:01:57;21.11;67.61
65040;HTU21D;51606;45.000;38.612;2022-08-19T02:04:28;21.11;67.61
65040;HTU21D;51606;45.000;38.612;2022-08-19T02:06:55;21.10;67.63
65040;HTU21D;51606;45.000;38.612;2022-08-19T02:09:21;21.09;67.69
65040;HTU21D;51606;45.000;38.612;2022-08-19T02:11:48;21.06;67.75
65040;HTU21D;51606;45.000;38.612;2022-08-19T02:14:14;21.06;67.80
65040;HTU21D;51606;45.000;38.612;2022-08-19T02:16:41;21.04;67.84
65040;HTU21D;51606;45.000;38.612;2022-08-19T02:19:07;21.03;67.89
65040;HTU21D;51606;45.000;38.612;2022-08-19T02:21:34;21.01;67.97
65040;HTU21D;51606;45.000;38.612;2022-08-19T02:24:01;20.99;68.03
65040;HTU21D;51606;45.000;38.612;2022-08-19T02:26:28;20.98;68.05
65040;HTU21D;51606;45.000;38.612;2022-08-19T02:28:55;20.99;68.05
65040;HTU21D;51606;45.000;38.612;2022-08-19T02:31:23;20.99;68.06
65040;HTU21D;51606;45.000;38.612;2022-08-19T02:33:50;20.99;68.10
65040;HTU21D;51606;45.000;38.612;2022-08-19T02:36:18;20.94;68.13
65040;HTU21D;51606;45.000;38.612;2022-08-19T02:38:45;20.95;68.18
65040;HTU21D;51606;45.000;38.612;2022-08-19T02:41:19;20.99;68.20
65040;HTU21D;51606;45.000;38.612;2022-08-19T02:43:46;20.99;68.13
65040;HTU21D;51606;45.000;38.612;2022-08-19T02:46:21;21.02;68.17
65040;HTU21D;51606;45.000;38.612;2022-08-19T02:48:49;21.01;68.14
65040;HTU21D;51606;45.000;38.612;2022-08-19T02:51:25;21.03;68.20
65040;HTU21D;51606;45.000;38.612;2022-08-19T02:53:52;21.05;68.17
65040;HTU21D;51606;45.000;38.612;2022-08-19T02:56:19;21.09;68.11
65040;HTU21D;51606;45.000;38.612;2022-08-19T02:58:47;21.16;68.01
65040;HTU21D;51606;45.000;38.612;2022-08-19T03:01:30;21.25;67.95
65040;HTU21D;51606;45.000;38.612;2022-08-19T03:03:59;21.31;67.80
65040;HTU21D;51606;45.000;38.612;2022-08-19T03:06:26;21.37;67.76
65040;HTU21D;51606;45.000;38.612;2022-08-19T03:08:53;21.45;67.67
65040;HTU21D;51606;45.000;38.612;2022-08-19T03:11:29;21.54;67.64
65040;HTU21D;51606;45.000;38.612;2022-08-19T03:13:57;21.64;67.51
65040;HTU21D;51606;45.000;38.612;2022-08-19T03:16:25;21.74;67.41
65040;HTU21D;51606;45.000;38.612;2022-08-19T03:18:55;21.87;67.26
65040;HTU21D;51606;45.000;38.612;2022-08-19T03:21:24;21.98;67.11
65040;HTU21D;51606;45.000;38.612;2022-08-19T03:23:54;22.06;67.05
65040;HTU21D;51606;45.000;38.612;2022-08-19T03:26:21;22.17;66.96
65040;HTU21D;51606;45.000;38.612;2022-08-19T03:28:47;22.26;66.91
65040;HTU21D;51606;45.000;38.612;2022-08-19T03:31:18;22.36;66.88
65040;HTU21D;51606;45.000;38.612;2022-08-19T03:33:45;22.49;66.77
65040;HTU21D;51606;45.000;38.612;2022-08-19T03:36:15;22.58;66.71
65040;HTU21D;51606;45.000;38.612;2022-08-19T03:38:45;22.69;66.65
65040;HTU21D;51606;45.000;38.612;2022-08-19T03:41:15;22.82;66.56
65040;HTU21D;51606;45.000;38.612;2022-08-19T03:43:42;23.00;66.36
65040;HTU21D;51606;45.000;38.612;2022-08-19T03:46:14;23.16;66.20
65040;HTU21D;51606;45.000;38.612;2022-08-19T03:48:42;23.34;66.03
65040;HTU21D;51606;45.000;38.612;2022-08-19T03:51:19;23.44;65.98
65040;HTU21D;51606;45.000;38.612;2022-08-19T03:53:46;23.60;65.90
65040;HTU21D;51606;45.000;38.612;2022-08-19T03:56:13;23.86;65.71
65040;HTU21D;51606;45.000;38.612;2022-08-19T03:58:40;24.23;65.34
65040;HTU21D;51606;45.000;38.612;2022-08-19T04:01:09;25.00;64.46
65040;HTU21D;51606;45.000;38.612;2022-08-19T04:03:37;25.99;63.18
65040;HTU21D;51606;45.000;38.612;2022-08-19T04:06:31;27.04;61.92
65040;HTU21D;51606;45.000;38.612;2022-08-19T04:08:59;28.05;60.71
65040;HTU21D;51606;45.000;38.612;2022-08-19T04:11:35;28.53;60.35
65040;HTU21D;51606;45.000;38.612;2022-08-19T04:14:04;28.58;60.92
65040;HTU21D;51606;45.000;38.612;2022-08-19T04:16:34;28.55;61.31
65040;HTU21D;51606;45.000;38.612;2022-08-19T04:19:02;28.62;61.67
65040;HTU21D;51606;45.000;38.612;2022-08-19T04:21:29;28.95;61.31
65040;HTU21D;51606;45.000;38.612;2022-08-19T04:23:57;29.31;60.76
65040;HTU21D;51606;45.000;38.612;2022-08-19T04:26:29;29.23;61.06
65040;HTU21D;51606;45.000;38.612;2022-08-19T04:29:00;29.11;61.63
65040;HTU21D;51606;45.000;38.612;2022-08-19T04:31:30;29.46;61.42
65040;HTU21D;51606;45.000;38.612;2022-08-19T04:33:59;30.24;60.37
65040;HTU21D;51606;45.000;38.612;2022-08-19T04:36:29;31.30;58.83
65040;HTU21D;51606;45.000;38.612;2022-08-19T04:39:14;31.96;58.08
65040;HTU21D;51606;45.000;38.612;2022-08-19T04:41:41;32.45;57.93
65040;HTU21D;51606;45.000;38.612;2022-08-19T04:44:26;33.20;57.20
65040;HTU21D;51606;45.000;38.612;2022-08-19T04:46:56;33.71;56.71
65040;HTU21D;51606;45.000;38.612;2022-08-19T04:49:23;34.18;56.39
65040;HTU21D;51606;45.000;38.612;2022-08-19T04:51:52;34.55;56.04
65040;HTU21D;51606;45.000;38.612;2022-08-19T04:54:21;34.80;56.07
65040;HTU21D;51606;45.000;38.612;2022-08-19T04:56:54;35.14;55.57
65040;HTU21D;51606;45.000;38.612;2022-08-19T04:59:20;35.84;54.79
65040;HTU21D;51606;45.000;38.612;2022-08-19T05:01:47;36.38;54.13
65040;HTU21D;51606;45.000;38.612;2022-08-19T05:04:18;36.40;54.20
65040;HTU21D;51606;45.000;38.612;2022-08-19T05:06:46;36.60;54.20
65040;HTU21D;51606;45.000;38.612;2022-08-19T05:09:22;36.89;53.93
65040;HTU21D;51606;45.000;38.612;2022-08-19T05:11:49;37.60;52.94
65040;HTU21D;51606;45.000;38.612;2022-08-19T05:14:18;37.92;52.49
65040;HTU21D;51606;45.000;38.612;2022-08-19T05:16:46;38.22;52.36
65040;HTU21D;51606;45.000;38.612;2022-08-19T05:19:13;38.85;51.62
65040;HTU21D;51606;45.000;38.612;2022-08-19T05:21:59;39.61;50.62
65040;HTU21D;51606;45.000;38.612;2022-08-19T05:24:45;40.16;50.04
65040;HTU21D;51606;45.000;38.612;2022-08-19T05:27:14;40.48;49.82
65040;HTU21D;51606;45.000;38.612;2022-08-19T05:29:41;40.90;49.37
65040;HTU21D;51606;45.000;38.612;2022-08-19T05:32:07;41.16;49.20
65040;HTU21D;51606;45.000;38.612;2022-08-19T05:34:37;41.59;48.65
65040;HTU21D;51606;45.000;38.612;2022-08-19T05:37:05;41.56;48.73
65040;HTU21D;51606;45.000;38.612;2022-08-19T05:39:35;41.21;49.27
65040;HTU21D;51606;45.000;38.612;2022-08-19T05:42:05;41.24;49.22
65040;HTU21D;51606;45.000;38.612;2022-08-19T05:44:38;41.50;48.79
65040;HTU21D;51606;45.000;38.612;2022-08-19T05:47:06;41.76;48.29
65040;HTU21D;51606;45.000;38.612;2022-08-19T05:49:34;41.93;48.02
65040;HTU21D;51606;45.000;38.612;2022-08-19T05:52:07;41.87;48.05
65040;HTU21D;51606;45.000;38.612;2022-08-19T05:54:34;41.87;48.13
65040;HTU21D;51606;45.000;38.612;2022-08-19T05:57:02;41.89;47.92
65040;HTU21D;51606;45.000;38.612;2022-08-19T05:59:28;41.14;48.98
65040;HTU21D;51606;45.000;38.612;2022-08-19T06:01:56;40.54;49.78
65040;HTU21D;51606;45.000;38.612;2022-08-19T06:04:28;40.44;49.84
65040;HTU21D;51606;45.000;38.612;2022-08-19T06:06:55;40.41;49.60
65040;HTU21D;51606;45.000;38.612;2022-08-19T06:09:22;40.27;49.55
65040;HTU21D;51606;45.000;38.612;2022-08-19T06:11:52;39.85;49.93
65040;HTU21D;51606;45.000;38.612;2022-08-19T06:14:29;39.82;49.72
65040;HTU21D;51606;45.000;38.612;2022-08-19T06:16:56;39.95;49.33
65040;HTU21D;51606;45.000;38.612;2022-08-19T06:19:26;39.12;50.56
65040;HTU21D;51606;45.000;38.612;2022-08-19T06:21:57;38.79;50.99
65040;HTU21D;51606;45.000;38.612;2022-08-19T06:24:25;38.45;51.45
65040;HTU21D;51606;45.000;38.612;2022-08-19T06:26:54;38.63;50.95
65040;HTU21D;51606;45.000;38.612;2022-08-19T06:29:23;39.22;49.96
65040;HTU21D;51606;45.000;38.612;2022-08-19T06:31:52;39.80;49.01
65040;HTU21D;51606;45.000;38.612;2022-08-19T06:34:19;39.41;49.68
65040;HTU21D;51606;45.000;38.612;2022-08-19T06:36:49;38.59;51.14
65040;HTU21D;51606;45.000;38.612;2022-08-19T06:39:23;38.34;51.64
65040;HTU21D;51606;45.000;38.612;2022-08-19T06:41:53;38.26;51.73
65040;HTU21D;51606;45.000;38.612;2022-08-19T06:44:23;38.33;51.56
65040;HTU21D;51606;45.000;38.612;2022-08-19T06:46:50;38.11;51.81
65040;HTU21D;51606;45.000;38.612;2022-08-19T06:49:17;37.64;52.69
65040;HTU21D;51606;45.000;38.612;2022-08-19T06:51:50;38.01;52.06
65040;HTU21D;51606;45.000;38.612;2022-08-19T06:54:17;38.19;51.64
65040;HTU21D;51606;45.000;38.612;2022-08-19T06:56:44;38.32;51.40
65040;HTU21D;51606;45.000;38.612;2022-08-19T06:59:15;38.69;50.88
65040;HTU21D;51606;45.000;38.612;2022-08-19T07:01:45;38.74;50.76
65040;HTU21D;51606;45.000;38.612;2022-08-19T07:04:15;38.71;50.88
65040;HTU21D;51606;45.000;38.612;2022-08-19T07:06:42;38.39;51.50
65040;HTU21D;51606;45.000;38.612;2022-08-19T07:09:12;38.29;51.67
65040;HTU21D;51606;45.000;38.612;2022-08-19T07:11:46;38.03;52.09
65040;HTU21D;51606;45.000;38.612;2022-08-19T07:14:15;38.01;52.18
65040;HTU21D;51606;45.000;38.612;2022-08-19T07:16:45;38.18;51.91
65040;HTU21D;51606;45.000;38.612;2022-08-19T07:19:12;38.67;51.12
65040;HTU21D;51606;45.000;38.612;2022-08-19T07:21:39;38.86;50.85
65040;HTU21D;51606;45.000;38.612;2022-08-19T07:24:05;38.81;50.99
65040;HTU21D;51606;45.000;38.612;2022-08-19T07:26:41;38.97;50.78
65040;HTU21D;51606;45.000;38.612;2022-08-19T07:29:08;39.29;50.37
65040;HTU21D;51606;45.000;38.612;2022-08-19T07:31:35;39.40;50.24
65040;HTU21D;51606;45.000;38.612;2022-08-19T07:34:08;39.37;50.30
65040;HTU21D;51606;45.000;38.612;2022-08-19T07:36:37;39.14;50.79
65040;HTU21D;51606;45.000;38.612;2022-08-19T07:39:08;39.18;50.80
65040;HTU21D;51606;45.000;38.612;2022-08-19T07:41:36;39.61;50.16
65040;HTU21D;51606;45.000;38.612;2022-08-19T07:44:05;39.94;49.66
65040;HTU21D;51606;45.000;38.612;2022-08-19T07:46:35;40.13;49.49
65040;HTU21D;51606;45.000;38.612;2022-08-19T07:49:03;40.16;49.55
65040;HTU21D;51606;45.000;38.612;2022-08-19T07:51:29;39.91;50.04
65040;HTU21D;51606;45.000;38.612;2022-08-19T07:53:56;39.89;50.06
65040;HTU21D;51606;45.000;38.612;2022-08-19T07:56:25;39.70;50.31
65040;HTU21D;51606;45.000;38.612;2022-08-19T07:58:52;39.92;49.98
65040;HTU21D;51606;45.000;38.612;2022-08-19T08:01:23;40.28;49.30
65040;HTU21D;51606;45.000;38.612;2022-08-19T08:03:52;40.51;48.88
65040;HTU21D;51606;45.000;38.612;2022-08-19T08:06:37;40.50;49.01
65040;HTU21D;51606;45.000;38.612;2022-08-19T08:09:31;40.75;48.65
65040;HTU21D;51606;45.000;38.612;2022-08-19T08:12:05;40.88;48.37
65040;HTU21D;51606;45.000;38.612;2022-08-19T08:14:37;40.78;48.60
65040;HTU21D;51606;45.000;38.612;2022-08-19T08:17:05;40.87;48.41
65040;HTU21D;51606;45.000;38.612;2022-08-19T08:19:32;40.93;48.22
65040;HTU21D;51606;45.000;38.612;2022-08-19T08:22:00;41.07;47.89
65040;HTU21D;51606;45.000;38.612;2022-08-19T08:24:29;41.19;47.57
65040;HTU21D;51606;45.000;38.612;2022-08-19T08:26:57;40.53;48.44
65040;HTU21D;51606;45.000;38.612;2022-08-19T08:29:29;39.88;49.30
65040;HTU21D;51606;45.000;38.612;2022-08-19T08:31:57;39.96;48.97
65040;HTU21D;51606;45.000;38.612;2022-08-19T08:34:23;40.19;48.37
65040;HTU21D;51606;45.000;38.612;2022-08-19T08:36:50;40.33;47.86
65040;HTU21D;51606;45.000;38.612;2022-08-19T08:39:19;40.48;47.53
65040;HTU21D;51606;45.000;38.612;2022-08-19T08:42:01;40.83;46.76
65040;HTU21D;51606;45.000;38.612;2022-08-19T08:47:10;40.57;46.91
65040;HTU21D;51606;45.000;38.612;2022-08-19T08:49:47;40.73;46.51
65040;HTU21D;51606;45.000;38.612;2022-08-19T08:52:37;40.93;46.04
65040;HTU21D;51606;45.000;38.612;2022-08-19T08:55:20;41.02;45.77
65040;HTU21D;51606;45.000;38.612;2022-08-19T09:00:22;40.09;46.92
65040;HTU21D;51606;45.000;38.612;2022-08-19T09:02:48;39.05;48.27
65040;HTU21D;51606;45.000;38.612;2022-08-19T09:05:15;37.82;49.95
65040;HTU21D;51606;45.000;38.612;2022-08-19T09:11:06;35.68;52.40
65040;HTU21D;51606;45.000;38.612;2022-08-19T09:14:06;35.00;52.93
65040;HTU21D;51606;45.000;38.612;2022-08-19T09:16:35;34.24;53.55
65040;HTU21D;51606;45.000;38.612;2022-08-19T09:19:04;33.73;53.85
65040;HTU21D;51606;45.000;38.612;2022-08-19T09:21:31;33.25;54.14
65040;HTU21D;51606;45.000;38.612;2022-08-19T09:23:58;32.97;54.13
65040;HTU21D;51606;45.000;38.612;2022-08-19T09:26:25;32.75;54.00
65040;HTU21D;51606;45.000;38.612;2022-08-19T09:28:52;32.47;54.02
65040;HTU21D;51606;45.000;38.612;2022-08-19T09:31:39;32.16;54.10
65040;HTU21D;51606;45.000;38.612;2022-08-19T09:34:06;31.92;54.18
65040;HTU21D;51606;45.000;38.612;2022-08-19T09:36:32;31.67;54.27
65040;HTU21D;51606;45.000;38.612;2022-08-19T09:39:04;31.46;54.29
65040;HTU21D;51606;45.000;38.612;2022-08-19T09:41:32;31.38;54.17
65040;HTU21D;51606;45.000;38.612;2022-08-19T09:43:58;31.37;54.00
65040;HTU21D;51606;45.000;38.612;2022-08-19T09:46:27;31.35;53.86
65040;HTU21D;51606;45.000;38.612;2022-08-19T09:49:23;31.29;53.81
65040;HTU21D;51606;45.000;38.612;2022-08-19T09:51:51;31.19;53.91
65040;HTU21D;51606;45.000;38.612;2022-08-19T09:54:18;31.04;54.05
65040;HTU21D;51606;45.000;38.612;2022-08-19T09:56:44;30.82;54.31
65040;HTU21D;51606;45.000;38.612;2022-08-19T09:59:11;30.63;54.53
65040;HTU21D;51606;45.000;38.612;2022-08-19T10:01:38;30.51;54.65
65040;HTU21D;51606;45.000;38.612;2022-08-19T10:04:05;30.38;54.69
65040;HTU21D;51606;45.000;38.612;2022-08-19T10:06:36;30.31;54.75
65040;HTU21D;51606;45.000;38.612;2022-08-19T10:09:04;30.22;54.78
65040;HTU21D;51606;45.000;38.612;2022-08-19T10:11:33;30.16;54.82
65040;HTU21D;51606;45.000;38.612;2022-08-19T10:14:02;30.09;54.86
65040;HTU21D;51606;45.000;38.612;2022-08-19T10:16:32;29.98;54.94
65040;HTU21D;51606;45.000;38.612;2022-08-19T10:18:59;29.90;55.01
65040;HTU21D;51606;45.000;38.612;2022-08-19T10:21:30;29.85;55.10
65040;HTU21D;51606;45.000;38.612;2022-08-19T10:24:03;29.81;55.11
65040;HTU21D;51606;45.000;38.612;2022-08-19T10:26:36;29.80;55.13
65040;HTU21D;51606;45.000;38.612;2022-08-19T10:29:04;29.78;55.14
65040;HTU21D;51606;45.000;38.612;2022-08-19T10:31:33;29.76;55.20
65040;HTU21D;51606;45.000;38.612;2022-08-19T10:34:00;29.73;55.23
65040;HTU21D;51606;45.000;38.612;2022-08-19T10:36:33;29.75;55.24
65040;HTU21D;51606;45.000;38.612;2022-08-19T10:39:06;29.76;55.21
65040;HTU21D;51606;45.000;38.612;2022-08-19T10:41:36;29.80;55.16
65040;HTU21D;51606;45.000;38.612;2022-08-19T10:44:06;29.91;55.04
65040;HTU21D;51606;45.000;38.612;2022-08-19T10:46:38;30.03;54.87
65040;HTU21D;51606;45.000;38.612;2022-08-19T10:49:08;30.19;54.67
65040;HTU21D;51606;45.000;38.612;2022-08-19T10:51:36;30.38;54.44
65040;HTU21D;51606;45.000;38.612;2022-08-19T10:54:21;30.68;54.04
65040;HTU21D;51606;45.000;38.612;2022-08-19T10:56:48;30.92;53.71
65040;HTU21D;51606;45.000;38.612;2022-08-19T10:59:20;31.20;53.40
65040;HTU21D;51606;45.000;38.612;2022-08-19T15:57:49;27.50;57.51
65040;HTU21D;51606;45.000;38.612;2022-08-19T16:00:34;27.41;57.58
65040;HTU21D;51606;45.000;38.612;2022-08-19T16:03:19;27.32;57.65
65040;HTU21D;51606;45.000;38.612;2022-08-19T16:06:04;27.23;57.74
65040;HTU21D;51606;45.000;38.612;2022-08-19T16:08:48;27.13;57.84
65040;HTU21D;51606;45.000;38.612;2022-08-19T16:11:18;27.05;57.94
65040;HTU21D;51606;45.000;38.612;2022-08-19T16:13:47;26.94;58.05
65040;HTU21D;51606;45.000;38.612;2022-08-19T16:16:18;26.84;58.15
65040;HTU21D;51606;45.000;38.612;2022-08-19T16:18:45;26.73;58.24
65040;HTU21D;51606;45.000;38.612;2022-08-19T16:21:13;26.66;58.35
65040;HTU21D;51606;45.000;38.612;2022-08-19T16:23:43;26.56;58.48
65040;HTU21D;51606;45.000;38.612;2022-08-19T16:26:14;26.46;58.58
65040;HTU21D;51606;45.000;38.612;2022-08-19T16:28:42;26.34;58.74
65040;HTU21D;51606;45.000;38.612;2022-08-19T16:31:10;26.21;58.92
65040;HTU21D;51606;45.000;38.612;2022-08-19T16:33:37;26.09;59.04
65040;HTU21D;51606;45.000;38.612;2022-08-19T16:36:03;25.98;59.16
65040;HTU21D;51606;45.000;38.612;2022-08-19T16:38:32;25.88;59.28
65040;HTU21D;51606;45.000;38.612;2022-08-19T16:40:59;25.80;59.36
65040;HTU21D;51606;45.000;38.612;2022-08-19T16:43:28;25.73;59.44
65040;HTU21D;51606;45.000;38.612;2022-08-19T16:45:56;25.64;59.51
65040;HTU21D;51606;45.000;38.612;2022-08-19T16:48:24;25.57;59.57
65040;HTU21D;51606;45.000;38.612;2022-08-19T16:50:52;25.49;59.64
65040;HTU21D;51606;45.000;38.612;2022-08-19T16:53:20;25.40;59.73
65040;HTU21D;51606;45.000;38.612;2022-08-19T16:55:48;25.31;59.83
65040;HTU21D;51606;45.000;38.612;2022-08-19T16:58:20;25.21;59.93
65040;HTU21D;51606;45.000;38.612;2022-08-19T17:00:56;25.15;59.99
65040;HTU21D;51606;45.000;38.612;2022-08-19T17:03:22;25.04;60.10
65040;HTU21D;51606;45.000;38.612;2022-08-19T17:05:51;24.97;60.20
65040;HTU21D;51606;45.000;38.612;2022-08-19T17:08:20;24.88;60.28
65040;HTU21D;51606;45.000;38.612;2022-08-19T17:10:47;24.82;60.31
65040;HTU21D;51606;45.000;38.612;2022-08-19T17:13:14;24.74;60.38
65040;HTU21D;51606;45.000;38.612;2022-08-19T17:15:42;24.68;60.46
65040;HTU21D;51606;45.000;38.612;2022-08-19T17:18:10;24.60;60.54
65040;HTU21D;51606;45.000;38.612;2022-08-19T17:20:39;24.54;60.59
65040;HTU21D;51606;45.000;38.612;2022-08-19T17:23:07;24.47;60.64
65040;HTU21D;51606;45.000;38.612;2022-08-19T17:25:34;24.41;60.67
65040;HTU21D;51606;45.000;38.612;2022-08-19T17:28:13;24.38;60.70
65040;HTU21D;51606;45.000;38.612;2022-08-19T17:30:40;24.33;60.65
65040;HTU21D;51606;45.000;38.612;2022-08-19T17:33:07;24.32;60.66
65040;HTU21D;51606;45.000;38.612;2022-08-19T17:35:34;24.30;60.64
65040;HTU21D;51606;45.000;38.612;2022-08-19T17:38:04;24.27;60.68
65040;HTU21D;51606;45.000;38.612;2022-08-19T17:43:17;24.11;60.84
65040;HTU21D;51606;45.000;38.612;2022-08-19T17:45:45;24.06;60.92
65040;HTU21D;51606;45.000;38.612;2022-08-19T17:48:11;24.02;60.96
65040;HTU21D;51606;45.000;38.612;2022-08-19T17:50:39;23.99;61.01
65040;HTU21D;51606;45.000;38.612;2022-08-19T17:53:06;23.95;61.06
65040;HTU21D;51606;45.000;38.612;2022-08-19T17:55:32;23.90;61.09
65040;HTU21D;51606;45.000;38.612;2022-08-19T17:58:00;23.89;61.13
65040;HTU21D;51606;45.000;38.612;2022-08-19T18:00:31;23.85;61.18
65040;HTU21D;51606;45.000;38.612;2022-08-19T18:02:59;23.82;61.23
65040;HTU21D;51606;45.000;38.612;2022-08-19T18:05:33;23.80;61.29
65040;HTU21D;51606;45.000;38.612;2022-08-19T18:08:00;23.73;61.31
65040;HTU21D;51606;45.000;38.612;2022-08-19T18:10:29;23.70;61.41
65040;HTU21D;51606;45.000;38.612;2022-08-19T18:12:57;23.67;61.44
65040;HTU21D;51606;45.000;38.612;2022-08-19T18:15:25;23.62;61.50
65040;HTU21D;51606;45.000;38.612;2022-08-19T18:17:51;23.57;61.59
65040;HTU21D;51606;45.000;38.612;2022-08-19T18:20:18;23.53;61.65
65040;HTU21D;51606;45.000;38.612;2022-08-19T18:22:47;23.49;61.71
65040;HTU21D;51606;45.000;38.612;2022-08-19T18:25:26;23.45;61.80
65040;HTU21D;51606;45.000;38.612;2022-08-19T18:27:55;23.41;61.87
65040;HTU21D;51606;45.000;38.612;2022-08-19T18:30:23;23.37;61.92
65040;HTU21D;51606;45.000;38.612;2022-08-19T18:32:50;23.32;62.00
65040;HTU21D;51606;45.000;38.612;2022-08-19T18:35:20;23.29;62.07
65040;HTU21D;51606;45.000;38.612;2022-08-19T18:37:47;23.25;62.10
65040;HTU21D;51606;45.000;38.612;2022-08-19T18:40:17;23.22;62.17
65040;HTU21D;51606;45.000;38.612;2022-08-19T18:43:03;23.18;62.21
65040;HTU21D;51606;45.000;38.612;2022-08-19T18:45:42;23.15;62.24
65040;HTU21D;51606;45.000;38.612;2022-08-19T18:48:27;23.12;62.25
65040;HTU21D;51606;45.000;38.612;2022-08-19T18:51:14;23.11;62.28
65040;HTU21D;51606;45.000;38.612;2022-08-19T18:53:42;23.09;62.28
65040;HTU21D;51606;45.000;38.612;2022-08-19T18:56:11;23.09;62.31
65040;HTU21D;51606;45.000;38.612;2022-08-19T18:58:41;23.08;62.30
65040;HTU21D;51606;45.000;38.612;2022-08-19T19:01:14;23.07;62.34
65040;HTU21D;51606;45.000;38.612;2022-08-19T19:03:53;23.05;62.36
65040;HTU21D;51606;45.000;38.612;2022-08-19T19:06:28;23.00;62.45
65040;HTU21D;51606;45.000;38.612;2022-08-19T19:08:56;22.96;62.49
65040;HTU21D;51606;45.000;38.612;2022-08-19T19:11:28;22.96;62.53
65040;HTU21D;51606;45.000;38.612;2022-08-19T19:13:55;22.93;62.53
65040;HTU21D;51606;45.000;38.612;2022-08-19T19:16:22;22.91;62.57
65040;HTU21D;51606;45.000;38.612;2022-08-19T19:18:49;22.90;62.59
65040;HTU21D;51606;45.000;38.612;2022-08-19T19:21:22;22.86;62.65
65040;HTU21D;51606;45.000;38.612;2022-08-19T19:23:48;22.87;62.63
65040;HTU21D;51606;45.000;38.612;2022-08-19T19:26:15;22.85;62.69
65040;HTU21D;51606;45.000;38.612;2022-08-19T19:28:42;22.83;62.71
65040;HTU21D;51606;45.000;38.612;2022-08-19T19:31:17;22.83;62.75
65040;HTU21D;51606;45.000;38.612;2022-08-19T19:33:44;22.78;62.82
65040;HTU21D;51606;45.000;38.612;2022-08-19T19:36:11;22.73;62.92
65040;HTU21D;51606;45.000;38.612;2022-08-19T19:38:38;22.70;62.99
65040;HTU21D;51606;45.000;38.612;2022-08-19T19:41:08;22.67;63.07
65040;HTU21D;51606;45.000;38.612;2022-08-19T19:43:34;22.66;63.11
65040;HTU21D;51606;45.000;38.612;2022-08-19T19:46:00;22.65;63.11
65040;HTU21D;51606;45.000;38.612;2022-08-19T19:48:27;22.64;63.17
65040;HTU21D;51606;45.000;38.612;2022-08-19T19:50:55;22.58;63.25
65040;HTU21D;51606;45.000;38.612;2022-08-19T19:53:23;22.53;63.40
65040;HTU21D;51606;45.000;38.612;2022-08-19T19:55:52;22.49;63.47
65040;HTU21D;51606;45.000;38.612;2022-08-19T19:58:29;22.40;63.64
65040;HTU21D;51606;45.000;38.612;2022-08-19T20:00:57;22.33;63.79
65040;HTU21D;51606;45.000;38.612;2022-08-19T20:03:24;22.25;63.89
65040;HTU21D;51606;45.000;38.612;2022-08-19T20:05:51;22.18;64.03
65040;HTU21D;51606;45.000;38.612;2022-08-19T20:08:17;22.12;64.11
65040;HTU21D;51606;45.000;38.612;2022-08-19T20:11:05;22.09;64.15
65040;HTU21D;51606;45.000;38.612;2022-08-19T20:13:32;22.06;64.18
65040;HTU21D;51606;45.000;38.612;2022-08-19T20:16:00;22.03;64.20
65040;HTU21D;51606;45.000;38.612;2022-08-19T20:18:28;21.97;64.30
65040;HTU21D;51606;45.000;38.612;2022-08-19T20:20:55;21.93;64.37
65040;HTU21D;51606;45.000;38.612;2022-08-19T20:23:23;21.91;64.40
65040;HTU21D;51606;45.000;38.612;2022-08-19T20:25:50;21.91;64.38
65040;HTU21D;51606;45.000;38.612;2022-08-19T20:28:22;21.90;64.37
65040;HTU21D;51606;45.000;38.612;2022-08-19T20:30:48;21.85;64.43
65040;HTU21D;51606;45.000;38.612;2022-08-19T20:33:15;21.83;64.45
65040;HTU21D;51606;45.000;38.612;2022-08-19T20:35:42;21.85;64.44
65040;HTU21D;51606;45.000;38.612;2022-08-19T20:38:09;21.85;64.44
65040;HTU21D;51606;45.000;38.612;2022-08-19T20:40:35;21.81;64.49
65040;HTU21D;51606;45.000;38.612;2022-08-19T20:43:09;21.82;64.54
65040;HTU21D;51606;45.000;38.612;2022-08-19T20:45:35;21.82;64.50
65040;HTU21D;51606;45.000;38.612;2022-08-19T20:48:04;21.82;64.54
65040;HTU21D;51606;45.000;38.612;2022-08-19T20:50:32;21.80;64.63
65040;HTU21D;51606;45.000;38.612;2022-08-19T20:53:03;21.77;64.68
65040;HTU21D;51606;45.000;38.612;2022-08-19T20:55:33;21.75;64.69
65040;HTU21D;51606;45.000;38.612;2022-08-19T20:58:00;21.76;64.71
65040;HTU21D;51606;45.000;38.612;2022-08-19T21:00:26;21.76;64.74
65040;HTU21D;51606;45.000;38.612;2022-08-19T21:02:54;21.73;64.78
65040;HTU21D;51606;45.000;38.612;2022-08-19T21:05:20;21.73;64.85
65040;HTU21D;51606;45.000;38.612;2022-08-19T21:07:46;21.69;64.92
65040;HTU21D;51606;45.000;38.612;2022-08-19T21:10:13;21.67;65.02
65040;HTU21D;51606;45.000;38.612;2022-08-19T21:12:40;21.65;65.08
65040;HTU21D;51606;45.000;38.612;2022-08-19T21:15:08;21.64;65.17
65040;HTU21D;51606;45.000;38.612;2022-08-19T21:17:35;21.62;65.22
65040;HTU21D;51606;45.000;38.612;2022-08-19T21:20:02;21.62;65.27
65040;HTU21D;51606;45.000;38.612;2022-08-19T21:22:28;21.59;65.32
65040;HTU21D;51606;45.000;38.612;2022-08-19T21:24:55;21.58;65.37
65040;HTU21D;51606;45.000;38.612;2022-08-19T21:27:21;21.54;65.47
65040;HTU21D;51606;45.000;38.612;2022-08-19T21:29:47;21.51;65.54
65040;HTU21D;51606;45.000;38.612;2022-08-19T21:32:13;21.50;65.59
65040;HTU21D;51606;45.000;38.612;2022-08-19T21:34:40;21.49;65.65
65040;HTU21D;51606;45.000;38.612;2022-08-19T21:37:07;21.48;65.69
65040;HTU21D;51606;45.000;38.612;2022-08-19T21:39:33;21.46;65.75